createdAt,value
2023-01-29T00:00:10.810Z,8.18
2023-01-29T00:02:41.530Z,12.13
2023-01-29T00:05:26.474Z,8.20
2023-01-29T00:07:54.992Z,7.35
2023-01-29T00:10:22.963Z,9.32
2023-01-29T00:12:52.262Z,7.32
2023-01-29T00:15:21.049Z,8.00
2023-01-29T00:17:49.023Z,7.50
2023-01-29T00:20:17.698Z,5.63
2023-01-29T00:22:45.639Z,5.47
2023-01-29T00:25:13.408Z,5.40
2023-01-29T00:27:41.398Z,4.30
2023-01-29T00:30:13.059Z,5.13
2023-01-29T00:32:41.784Z,4.90
2023-01-29T00:35:10.350Z,6.80
2023-01-29T00:37:38.471Z,4.20
2023-01-29T00:40:06.905Z,4.15
2023-01-29T00:42:53.261Z,5.13
2023-01-29T00:45:21.153Z,3.65
2023-01-29T00:47:49.391Z,5.78
2023-01-29T00:50:17.694Z,3.72
2023-01-29T00:52:46.192Z,4.10
2023-01-29T00:55:14.209Z,3.13
2023-01-29T00:57:42.139Z,3.40
2023-01-29T01:00:12.972Z,3.17
2023-01-29T01:02:59.345Z,3.35
2023-01-29T01:05:28.178Z,3.83
2023-01-29T01:07:58.058Z,4.15
2023-01-29T01:10:32.485Z,3.83
2023-01-29T01:13:05.562Z,3.85
2023-01-29T01:15:40.114Z,3.95
2023-01-29T01:18:07.956Z,5.63
2023-01-29T01:20:36.929Z,6.80
2023-01-29T01:23:05.150Z,10.23
2023-01-29T01:25:33.296Z,8.48
2023-01-29T01:28:01.911Z,11.98
2023-01-29T01:30:33.345Z,10.55
2023-01-29T01:33:01.841Z,8.95
2023-01-29T01:35:29.943Z,10.18
2023-01-29T01:37:57.744Z,7.35
2023-01-29T01:40:26.993Z,8.25
2023-01-29T01:42:57.780Z,8.60
2023-01-29T01:45:34.806Z,7.68
2023-01-29T01:48:19.630Z,7.90
2023-01-29T01:50:56.971Z,6.70
2023-01-29T01:53:37.712Z,6.60
2023-01-29T01:56:25.270Z,7.22
2023-01-29T01:58:56.255Z,9.35
2023-01-29T02:01:30.764Z,20.38
2023-01-29T02:04:19.413Z,16.92
2023-01-29T02:07:06.596Z,17.88
2023-01-29T02:09:39.699Z,19.25
2023-01-29T02:12:11.611Z,11.45
2023-01-29T02:14:41.336Z,10.98
2023-01-29T02:17:12.419Z,11.38
2023-01-29T02:20:07.112Z,8.80
2023-01-29T02:23:02.648Z,10.57
2023-01-29T02:26:05.217Z,8.18
2023-01-29T02:29:23.400Z,8.75
2023-01-29T02:32:05.212Z,8.82
2023-01-29T02:35:12.146Z,9.45
2023-01-29T02:38:07.488Z,8.00
2023-01-29T02:41:16.921Z,6.03
2023-01-29T02:43:54.489Z,7.18
2023-01-29T02:46:25.623Z,6.03
2023-01-29T02:49:09.164Z,8.25
2023-01-29T02:51:45.021Z,5.38
2023-01-29T02:54:22.238Z,4.55
2023-01-29T02:56:59.430Z,4.63
2023-01-29T02:59:38.688Z,5.53
2023-01-29T03:02:11.291Z,5.32
2023-01-29T03:04:48.081Z,5.22
2023-01-29T03:07:45.026Z,6.38
2023-01-29T03:10:40.292Z,3.00
2023-01-29T03:13:20.432Z,4.60
2023-01-29T03:15:55.111Z,3.97
2023-01-29T03:19:20.270Z,3.78
2023-01-29T03:22:00.535Z,3.70
2023-01-29T03:25:04.505Z,3.80
2023-01-29T03:27:56.009Z,5.18
2023-01-29T03:30:45.011Z,3.25
2023-01-29T03:33:33.274Z,4.00
2023-01-29T03:36:09.614Z,5.57
2023-01-29T03:38:37.570Z,3.33
2023-01-29T03:41:38.919Z,3.38
2023-01-29T03:44:40.734Z,4.35
2023-01-29T03:47:27.277Z,3.95
2023-01-29T03:50:10.242Z,3.53
2023-01-29T03:53:11.836Z,3.50
2023-01-29T03:55:59.891Z,4.00
2023-01-29T03:58:57.564Z,3.67
2023-01-29T04:01:40.895Z,2.75
2023-01-29T04:04:19.008Z,2.92
2023-01-29T04:06:49.171Z,2.35
2023-01-29T04:09:28.338Z,3.35
2023-01-29T04:12:09.492Z,4.07
2023-01-29T04:14:40.153Z,2.70
2023-01-29T04:17:18.208Z,3.03
2023-01-29T04:19:54.805Z,2.90
2023-01-29T04:22:33.381Z,2.78
2023-01-29T04:25:09.761Z,3.03
2023-01-29T04:28:05.797Z,2.20
2023-01-29T04:30:40.773Z,3.58
2023-01-29T04:33:30.053Z,2.90
2023-01-29T04:36:26.293Z,4.65
2023-01-29T04:39:13.287Z,4.55
2023-01-29T04:41:51.917Z,2.75
2023-01-29T04:44:56.990Z,2.40
2023-01-29T04:47:34.074Z,2.22
2023-01-29T04:50:16.458Z,3.63
2023-01-29T04:53:08.118Z,2.50
2023-01-29T04:55:44.678Z,2.83
2023-01-29T04:58:22.349Z,1.88
2023-01-29T05:00:52.355Z,2.85
2023-01-29T05:03:22.169Z,2.75
2023-01-29T05:05:51.231Z,1.83
2023-01-29T05:08:21.326Z,1.80
2023-01-29T05:10:50.422Z,2.88
2023-01-29T05:13:19.674Z,2.45
2023-01-29T05:15:57.949Z,2.40
2023-01-29T05:18:25.905Z,3.22
2023-01-29T05:20:54.312Z,1.95
2023-01-29T05:23:23.392Z,2.65
2023-01-29T05:25:52.265Z,2.08
2023-01-29T05:28:20.090Z,1.90
2023-01-29T05:30:50.181Z,2.38
2023-01-29T05:33:21.179Z,1.67
2023-01-29T05:35:50.131Z,2.15
2023-01-29T05:38:18.563Z,1.75
2023-01-29T05:40:46.732Z,2.78
2023-01-29T05:43:19.516Z,5.85
2023-01-29T05:45:59.130Z,4.63
2023-01-29T05:48:29.143Z,2.63
2023-01-29T05:51:03.648Z,10.05
2023-01-29T05:53:32.121Z,2.08
2023-01-29T05:56:02.652Z,1.98
2023-01-29T05:58:32.048Z,4.10
2023-01-29T06:01:08.113Z,4.07
2023-01-29T06:03:36.007Z,2.00
2023-01-29T06:06:03.914Z,2.80
2023-01-29T06:08:33.055Z,2.78
2023-01-29T06:11:01.002Z,2.92
2023-01-29T06:13:29.246Z,3.95
2023-01-29T06:15:57.338Z,5.47
2023-01-29T06:18:25.234Z,5.72
2023-01-29T06:20:53.222Z,5.53
2023-01-29T06:23:20.981Z,4.68
2023-01-29T06:25:48.698Z,2.88
2023-01-29T06:28:16.477Z,2.63
2023-01-29T06:30:47.946Z,2.47
2023-01-29T06:33:18.891Z,2.42
2023-01-29T06:35:46.799Z,1.92
2023-01-29T06:38:14.699Z,2.90
2023-01-29T06:40:42.460Z,3.03
2023-01-29T06:43:10.243Z,1.83
2023-01-29T06:45:38.280Z,2.17
2023-01-29T06:48:06.317Z,2.03
2023-01-29T06:50:34.364Z,2.85
2023-01-29T06:53:05.561Z,2.58
2023-01-29T06:55:33.455Z,1.88
2023-01-29T06:58:05.042Z,2.60
2023-01-29T07:00:33.229Z,2.70
2023-01-29T07:03:01.077Z,3.13
2023-01-29T07:05:31.578Z,3.35
2023-01-29T07:07:59.421Z,2.22
2023-01-29T07:10:27.399Z,2.53
2023-01-29T07:12:55.255Z,2.30
2023-01-29T07:15:23.080Z,3.63
2023-01-29T07:17:58.707Z,4.28
2023-01-29T07:20:28.108Z,2.55
2023-01-29T07:22:59.021Z,2.65
2023-01-29T07:25:27.255Z,4.18
2023-01-29T07:27:55.303Z,1.90
2023-01-29T07:30:23.294Z,4.05
2023-01-29T07:32:51.286Z,2.88
2023-01-29T07:35:21.800Z,7.65
2023-01-29T07:37:52.466Z,2.15
2023-01-29T07:40:20.421Z,2.10
2023-01-29T07:42:48.227Z,2.80
2023-01-29T07:45:16.101Z,2.28
2023-01-29T07:47:46.881Z,1.52
2023-01-29T07:50:15.144Z,2.67
2023-01-29T07:52:43.389Z,2.53
2023-01-29T07:55:11.207Z,2.03
2023-01-29T07:57:38.891Z,1.85
2023-01-29T08:00:07.180Z,3.05
2023-01-29T08:02:40.925Z,1.80
2023-01-29T08:05:09.268Z,3.00
2023-01-29T08:07:37.194Z,6.55
2023-01-29T08:10:08.312Z,2.08
2023-01-29T08:12:36.095Z,1.98
2023-01-29T08:15:04.176Z,2.80
2023-01-29T08:17:32.058Z,2.72
2023-01-29T08:20:00.000Z,2.10
2023-01-29T08:22:28.007Z,2.83
2023-01-29T08:25:06.469Z,2.58
2023-01-29T08:27:36.276Z,2.55
2023-01-29T08:30:05.321Z,1.95
2023-01-29T08:32:33.282Z,2.00
2023-01-29T08:35:01.179Z,3.10
2023-01-29T08:37:29.110Z,1.90
2023-01-29T08:39:57.102Z,1.80
2023-01-29T08:42:24.919Z,2.03
2023-01-29T08:44:52.802Z,2.65
2023-01-29T08:47:20.682Z,2.03
2023-01-29T08:49:48.794Z,2.20
2023-01-29T08:52:16.544Z,2.20
2023-01-29T08:54:44.343Z,3.20
2023-01-29T08:57:12.233Z,2.00
2023-01-29T08:59:40.028Z,2.38
2023-01-29T09:02:08.959Z,1.58
2023-01-29T09:04:36.809Z,2.83
2023-01-29T09:07:04.773Z,3.20
2023-01-29T09:09:32.692Z,6.75
2023-01-29T09:12:00.469Z,6.80
2023-01-29T09:14:28.452Z,3.80
2023-01-29T09:17:00.919Z,5.05
2023-01-29T09:19:28.799Z,10.48
2023-01-29T09:21:56.939Z,7.40
2023-01-29T09:24:24.835Z,5.20
2023-01-29T09:26:52.905Z,8.75
2023-01-29T09:29:20.750Z,2.85
2023-01-29T09:31:48.562Z,7.38
2023-01-29T09:34:16.349Z,4.85
2023-01-29T09:36:44.250Z,5.65
2023-01-29T09:39:12.121Z,8.20
2023-01-29T09:41:42.923Z,20.30
2023-01-29T09:44:38.072Z,3.90
2023-01-29T09:47:08.730Z,10.45
2023-01-29T09:49:42.848Z,3.22
2023-01-29T09:52:26.812Z,24.97
2023-01-29T09:55:15.612Z,11.20
2023-01-29T09:57:55.238Z,7.32
2023-01-29T10:00:26.239Z,9.73
2023-01-29T10:03:40.482Z,14.38
2023-01-29T10:06:16.605Z,9.65
2023-01-29T10:08:47.264Z,7.47
2023-01-29T10:11:31.304Z,10.90
2023-01-29T10:14:20.405Z,12.38
2023-01-29T10:17:02.932Z,9.55
2023-01-29T10:20:17.631Z,19.13
2023-01-29T10:22:54.921Z,14.18
2023-01-29T10:25:23.575Z,16.63
2023-01-29T10:27:57.544Z,9.48
2023-01-29T10:30:42.565Z,7.30
2023-01-29T10:33:19.128Z,6.45
2023-01-29T10:35:55.365Z,9.57
2023-01-29T10:38:40.176Z,10.23
2023-01-29T10:41:10.912Z,6.93
2023-01-29T10:43:54.868Z,14.38
2023-01-29T10:46:50.794Z,7.53
2023-01-29T10:49:42.908Z,7.68
2023-01-29T10:52:27.520Z,10.15
2023-01-29T10:54:59.372Z,13.07
2023-01-29T10:57:52.484Z,8.50
2023-01-29T11:00:49.937Z,9.77
2023-01-29T11:03:29.612Z,7.00
2023-01-29T11:06:00.448Z,16.35
2023-01-29T11:08:35.480Z,9.73
2023-01-29T11:13:57.885Z,10.82
2023-01-29T11:16:26.627Z,12.13
2023-01-29T11:19:00.283Z,8.32
2023-01-29T11:21:29.296Z,14.73
2023-01-29T11:24:17.517Z,14.57
2023-01-29T11:26:48.731Z,14.00
2023-01-29T11:29:48.422Z,15.95
2023-01-29T11:32:26.634Z,8.30
2023-01-29T11:35:17.748Z,11.13
2023-01-29T11:37:49.034Z,15.13
2023-01-29T11:40:20.062Z,16.73
2023-01-29T11:42:48.361Z,9.45
2023-01-29T11:45:30.068Z,13.60
2023-01-29T11:47:58.695Z,22.70
2023-01-29T11:50:32.466Z,14.68
2023-01-29T11:53:01.609Z,18.02
2023-01-29T11:55:49.796Z,18.67
2023-01-29T11:58:28.095Z,14.50
2023-01-29T12:00:56.934Z,21.23
2023-01-29T12:03:48.679Z,14.98
2023-01-29T12:06:25.343Z,13.30
2023-01-29T12:09:00.910Z,13.10
2023-01-29T12:11:33.910Z,11.93
2023-01-29T12:14:04.145Z,10.57
2023-01-29T12:16:47.014Z,10.85
2023-01-29T12:19:27.123Z,10.68
2023-01-29T12:22:09.226Z,16.77
2023-01-29T12:24:52.227Z,24.17
2023-01-29T12:27:49.215Z,8.73
2023-01-29T12:30:26.384Z,12.93
2023-01-29T12:33:26.687Z,22.38
2023-01-29T12:36:15.100Z,13.93
2023-01-29T12:38:45.473Z,26.67
2023-01-29T12:41:22.417Z,19.08
2023-01-29T12:44:19.448Z,15.57
2023-01-29T12:46:56.942Z,21.05
2023-01-29T12:49:28.407Z,16.02
2023-01-29T12:52:04.915Z,14.80
2023-01-29T12:54:56.590Z,18.90
2023-01-29T12:57:32.867Z,23.63
2023-01-29T13:00:16.301Z,16.55
2023-01-29T13:02:57.113Z,11.57
2023-01-29T13:05:29.660Z,13.50
2023-01-29T13:08:29.727Z,17.20
2023-01-29T13:11:01.141Z,21.40
2023-01-29T13:13:36.481Z,27.83
2023-01-29T13:16:09.500Z,31.65
2023-01-29T13:18:55.159Z,31.15
2023-01-29T13:21:27.606Z,37.80
2023-01-29T13:24:02.630Z,32.63
2023-01-29T13:28:59.825Z,41.33
2023-01-29T13:31:39.236Z,38.63
2023-01-29T13:34:21.978Z,35.00
2023-01-29T13:36:56.485Z,28.25
2023-01-29T13:39:34.063Z,29.77
2023-01-29T13:42:04.605Z,20.27
2023-01-29T13:44:38.538Z,16.83
2023-01-29T13:47:11.653Z,16.35
2023-01-29T13:49:53.142Z,23.98
2023-01-29T13:52:43.519Z,15.52
2023-01-29T13:55:14.543Z,16.83
2023-01-29T13:57:46.180Z,17.70
2023-01-29T14:00:25.206Z,15.48
2023-01-29T14:02:56.500Z,24.27
2023-01-29T14:05:32.769Z,9.93
2023-01-29T14:08:02.468Z,19.90
2023-01-29T14:10:31.677Z,16.27
2023-01-29T14:13:05.388Z,19.58
2023-01-29T14:15:35.299Z,26.17
2023-01-29T14:18:06.330Z,31.50
2023-01-29T14:20:45.546Z,20.58
2023-01-29T14:23:36.868Z,22.38
2023-01-29T14:26:23.875Z,30.92
2023-01-29T14:29:25.577Z,18.63
2023-01-29T14:32:07.517Z,23.80
2023-01-29T14:34:43.372Z,24.90
2023-01-29T14:37:17.397Z,20.33
2023-01-29T14:39:52.383Z,20.58
2023-01-29T14:45:28.397Z,16.77
2023-01-29T14:48:19.350Z,20.02
2023-01-29T14:50:48.993Z,15.82
2023-01-29T14:53:40.493Z,14.40
2023-01-29T14:56:40.160Z,14.00
2023-01-29T14:59:47.894Z,12.48
2023-01-29T15:02:20.790Z,24.52
2023-01-29T15:04:57.528Z,12.93
2023-01-29T15:07:33.449Z,13.85
2023-01-29T15:10:23.026Z,8.48
2023-01-29T15:13:17.073Z,13.27
2023-01-29T15:15:48.518Z,11.73
2023-01-29T15:18:40.261Z,12.50
2023-01-29T15:21:16.186Z,16.13
2023-01-29T15:23:44.995Z,9.77
2023-01-29T15:26:18.771Z,13.02
2023-01-29T15:29:03.864Z,9.67
2023-01-29T15:34:06.620Z,18.88
2023-01-29T15:36:34.678Z,9.43
2023-01-29T15:39:23.009Z,6.68
2023-01-29T15:42:16.708Z,10.93
2023-01-29T15:44:47.669Z,16.23
2023-01-29T15:47:16.468Z,7.40
2023-01-29T15:49:47.980Z,13.98
2023-01-29T15:52:26.488Z,11.07
2023-01-29T15:54:55.321Z,8.43
2023-01-29T15:57:31.846Z,6.47
2023-01-29T16:00:00.198Z,8.70
2023-01-29T16:02:38.536Z,16.05
2023-01-29T16:05:15.793Z,13.45
2023-01-29T16:07:44.885Z,10.38
2023-01-29T16:10:24.997Z,9.55
2023-01-29T16:12:53.405Z,10.98
2023-01-29T16:15:40.985Z,10.38
2023-01-29T16:18:29.026Z,6.68
2023-01-29T16:20:58.130Z,7.03
2023-01-29T16:23:31.525Z,10.35
2023-01-29T16:26:05.663Z,10.23
2023-01-29T16:28:33.739Z,9.13
2023-01-29T16:31:04.298Z,4.90
2023-01-29T16:33:35.907Z,7.50
2023-01-29T16:36:06.281Z,7.55
2023-01-29T16:38:35.944Z,7.72
2023-01-29T16:41:14.495Z,7.40
2023-01-29T16:43:46.302Z,6.03
2023-01-29T16:46:25.401Z,4.45
2023-01-29T16:48:53.891Z,4.90
2023-01-29T16:51:36.716Z,10.38
2023-01-29T16:54:17.803Z,8.93
2023-01-29T16:56:47.826Z,7.70
2023-01-29T16:59:34.848Z,15.00
2023-01-29T17:02:03.341Z,6.43
2023-01-29T17:04:31.214Z,5.75
2023-01-29T17:07:01.122Z,7.18
2023-01-29T17:09:34.222Z,5.78
2023-01-29T17:12:05.313Z,10.25
2023-01-29T17:14:34.505Z,6.20
2023-01-29T17:17:05.414Z,10.43
2023-01-29T17:19:33.524Z,6.68
2023-01-29T17:22:06.189Z,4.93
2023-01-29T17:24:33.896Z,8.63
2023-01-29T17:27:02.629Z,10.40
2023-01-29T17:29:31.768Z,9.52
2023-01-29T17:32:02.339Z,5.93
2023-01-29T17:34:30.028Z,7.05
2023-01-29T17:36:57.753Z,8.20
2023-01-29T17:39:25.883Z,9.57
2023-01-29T17:42:01.544Z,8.85
2023-01-29T17:44:29.366Z,7.82
2023-01-29T17:46:57.938Z,6.18
2023-01-29T17:49:30.100Z,4.90
2023-01-29T17:51:58.108Z,16.60
2023-01-29T17:54:26.138Z,18.42
2023-01-29T17:56:54.466Z,16.15
2023-01-29T17:59:24.581Z,14.85
2023-01-29T18:01:53.336Z,10.93
2023-01-29T18:04:21.243Z,12.40
2023-01-29T18:06:50.759Z,12.07
2023-01-29T18:09:23.300Z,14.35
2023-01-29T18:11:51.746Z,10.60
2023-01-29T18:14:19.580Z,10.48
2023-01-29T18:16:47.520Z,9.68
2023-01-29T18:19:17.144Z,11.05
2023-01-29T18:21:45.133Z,8.73
2023-01-29T18:24:13.065Z,12.82
2023-01-29T18:26:41.065Z,8.00
2023-01-29T18:29:09.297Z,8.38
2023-01-29T18:31:37.155Z,6.63
2023-01-29T18:34:05.117Z,12.18
2023-01-29T18:36:33.227Z,4.25
2023-01-29T18:39:01.233Z,7.00
2023-01-29T18:41:29.077Z,8.10
2023-01-29T18:43:56.791Z,46.58
2023-01-29T18:46:24.521Z,28.63
2023-01-29T18:48:57.507Z,43.67
2023-01-29T18:51:25.270Z,39.28
2023-01-29T18:53:53.306Z,21.75
2023-01-29T18:56:21.519Z,31.55
2023-01-29T18:58:52.634Z,31.02
2023-01-29T19:01:23.999Z,37.20
2023-01-29T19:03:52.692Z,26.08
2023-01-29T19:06:23.416Z,24.75
2023-01-29T19:08:51.437Z,20.13
2023-01-29T19:11:19.255Z,20.48
2023-01-29T19:13:48.267Z,12.15
2023-01-29T19:16:16.137Z,16.95
2023-01-29T19:18:43.980Z,9.82
2023-01-29T19:21:14.215Z,15.27
2023-01-29T19:23:43.117Z,11.55
2023-01-29T19:26:11.673Z,9.82
2023-01-29T19:28:39.579Z,7.45
2023-01-29T19:31:07.482Z,8.30
2023-01-29T19:33:35.618Z,7.82
2023-01-29T19:36:03.549Z,6.45
2023-01-29T19:38:33.675Z,7.30
2023-01-29T19:41:01.824Z,7.30
2023-01-29T19:43:33.375Z,14.52
2023-01-29T19:46:02.243Z,10.90
2023-01-29T19:48:30.542Z,3.50
2023-01-29T19:51:00.476Z,7.97
2023-01-29T19:53:29.763Z,5.47
2023-01-29T19:56:02.420Z,4.80
2023-01-29T19:58:33.082Z,4.22
2023-01-29T20:01:20.827Z,5.25
2023-01-29T20:03:49.669Z,3.50
2023-01-29T20:06:22.965Z,5.68
2023-01-29T20:08:54.130Z,16.17
2023-01-29T20:11:23.277Z,31.58
2023-01-29T20:13:52.194Z,33.20
2023-01-29T20:16:20.772Z,37.72
2023-01-29T20:18:48.786Z,51.90
2023-01-29T20:21:20.633Z,58.42
2023-01-29T20:23:52.029Z,55.58
2023-01-29T20:26:20.337Z,56.08
2023-01-29T20:28:51.406Z,54.97
2023-01-29T20:31:21.971Z,54.00
2023-01-29T20:33:49.786Z,49.63
2023-01-29T20:36:20.958Z,41.45
2023-01-29T20:38:48.867Z,37.97
2023-01-29T20:41:18.762Z,33.50
2023-01-29T20:43:49.173Z,32.67
2023-01-29T20:46:17.443Z,25.08
2023-01-29T20:48:45.703Z,23.17
2023-01-29T20:51:16.782Z,24.83
2023-01-29T20:53:46.480Z,25.77
2023-01-29T20:56:32.170Z,25.15
2023-01-29T20:59:06.554Z,26.92
2023-01-29T21:01:34.374Z,31.90
2023-01-29T21:04:02.194Z,25.27
2023-01-29T21:06:30.076Z,19.80
2023-01-29T21:08:57.983Z,29.02
2023-01-29T21:11:26.511Z,25.95
2023-01-29T21:13:57.769Z,23.17
2023-01-29T21:16:29.307Z,18.10
2023-01-29T21:19:00.529Z,20.38
2023-01-29T21:21:31.403Z,19.05
2023-01-29T21:24:01.563Z,15.25
2023-01-29T21:26:29.359Z,16.30
2023-01-29T21:28:57.532Z,12.73
2023-01-29T21:31:25.318Z,13.38
2023-01-29T21:33:53.302Z,10.73
2023-01-29T21:36:21.095Z,11.77
2023-01-29T21:38:48.872Z,9.75
2023-01-29T21:41:16.633Z,9.52
2023-01-29T21:43:45.697Z,8.43
2023-01-29T21:46:16.295Z,9.95
2023-01-29T21:48:44.337Z,7.82
2023-01-29T21:51:12.256Z,8.07
2023-01-29T21:53:40.133Z,8.60
2023-01-29T21:56:07.943Z,7.80
2023-01-29T21:58:35.823Z,6.05
2023-01-29T22:01:36.077Z,8.02
2023-01-29T22:03:51.222Z,6.00
2023-01-29T22:06:19.094Z,5.97
2023-01-29T22:08:48.493Z,7.82
2023-01-29T22:11:16.500Z,9.32
2023-01-29T22:13:44.238Z,5.05
2023-01-29T22:16:12.072Z,3.60
2023-01-29T22:18:39.753Z,5.63
2023-01-29T22:21:07.474Z,6.10
2023-01-29T22:23:35.513Z,5.60
2023-01-29T22:26:07.463Z,4.38
2023-01-29T22:28:35.522Z,15.38
2023-01-29T22:31:04.095Z,9.68
2023-01-29T22:33:35.440Z,6.65
2023-01-29T22:36:03.715Z,6.03
2023-01-29T22:38:32.068Z,13.80
2023-01-29T22:41:01.011Z,10.02
2023-01-29T22:43:29.526Z,10.57
2023-01-29T22:45:57.574Z,11.27
2023-01-29T22:48:25.916Z,18.02
2023-01-29T22:51:10.109Z,9.40
2023-01-29T22:53:39.561Z,10.77
2023-01-29T22:56:08.098Z,8.05
2023-01-29T22:58:36.288Z,8.07
2023-01-29T23:01:04.736Z,10.80
2023-01-29T23:03:32.674Z,6.25
2023-01-29T23:06:01.037Z,10.68
2023-01-29T23:08:29.039Z,4.72
2023-01-29T23:11:14.381Z,5.28
2023-01-29T23:13:47.780Z,5.82
2023-01-29T23:16:17.145Z,5.63
2023-01-29T23:18:45.870Z,6.50
2023-01-29T23:21:13.944Z,4.88
2023-01-29T23:23:44.066Z,6.38
2023-01-29T23:26:31.876Z,7.03
2023-01-29T23:29:00.436Z,5.03
2023-01-29T23:31:28.468Z,4.00
2023-01-29T23:33:56.642Z,4.93
2023-01-29T23:36:27.208Z,4.68
2023-01-29T23:38:55.269Z,4.68
2023-01-29T23:41:23.186Z,5.05
2023-01-29T23:43:52.894Z,4.43
2023-01-29T23:46:21.413Z,3.30
2023-01-29T23:48:49.264Z,4.22
2023-01-29T23:51:17.166Z,3.92
2023-01-29T23:53:44.836Z,4.25
2023-01-29T23:56:15.807Z,4.00
2023-01-29T23:58:44.190Z,5.15
